Terminal Aerodrome Forecast
Issued by NWS Jacksonville, FL

Home | Current Version | Previous Version | Text Only | Print | Product List | Glossary On
Versions: 1 2 3 4 5 6 7 8 9 10 11 12
000
FTUS42 KJAX 111139
TAFGNV
TAF
KGNV 111139Z 1112/1212 06006KT P6SM SCT025 BKN040
     FM111600 10008KT P6SM SCT030 BKN050
     FM112300 08006KT P6SM VCSH SCT010 OVC025
     FM120200 VRB03KT P6SM VCSH SCT004 OVC010=

USA.gov is the U.S. government's official web portal to all federal, state and local government web resources and services.